createdAt,value
2017-10-04T00:00:12.507Z,68.80
2017-10-04T00:02:39.655Z,68.10
2017-10-04T00:05:06.904Z,68.10
2017-10-04T00:07:34.148Z,68.00
2017-10-04T00:10:01.346Z,68.00
2017-10-04T00:12:28.521Z,68.00
2017-10-04T00:14:55.670Z,68.10
2017-10-04T00:17:22.867Z,68.00
2017-10-04T00:19:50.019Z,67.90
2017-10-04T00:22:17.173Z,68.00
2017-10-04T00:24:44.394Z,68.00
2017-10-04T00:27:11.548Z,68.60
2017-10-04T00:29:38.743Z,68.30
2017-10-04T00:32:06.664Z,68.00
2017-10-04T00:34:33.818Z,67.80
2017-10-04T00:37:01.004Z,67.80
2017-10-04T00:39:28.164Z,67.90
2017-10-04T00:41:57.008Z,67.90
2017-10-04T00:44:24.164Z,67.90
2017-10-04T00:46:51.359Z,67.90
2017-10-04T00:49:19.279Z,67.80
2017-10-04T00:51:46.429Z,67.80
2017-10-04T00:54:13.636Z,68.60
2017-10-04T00:56:41.553Z,67.90
2017-10-04T00:59:08.711Z,67.90
2017-10-04T01:01:35.903Z,67.80
2017-10-04T01:04:03.819Z,68.60
2017-10-04T01:06:30.963Z,67.80
2017-10-04T01:08:58.151Z,67.90
2017-10-04T01:11:25.303Z,67.80
2017-10-04T01:13:53.226Z,67.80
2017-10-04T01:16:20.413Z,67.80
2017-10-04T01:18:47.569Z,67.80
2017-10-04T01:21:14.767Z,68.10
2017-10-04T01:23:42.679Z,68.00
2017-10-04T01:26:09.831Z,68.00
2017-10-04T01:28:37.015Z,67.70
2017-10-04T01:31:04.212Z,67.80
2017-10-04T01:33:31.368Z,67.80
2017-10-04T01:35:58.522Z,67.80
2017-10-04T01:38:25.715Z,67.80
2017-10-04T01:40:52.858Z,67.80
2017-10-04T01:43:20.011Z,67.80
2017-10-04T01:45:47.194Z,67.80
2017-10-04T01:48:15.110Z,68.80
2017-10-04T01:50:42.308Z,68.70
2017-10-04T01:53:10.223Z,67.90
2017-10-04T01:55:37.372Z,67.80
2017-10-04T01:58:04.574Z,67.80
2017-10-04T02:00:32.495Z,68.50
2017-10-04T02:02:59.639Z,67.80
2017-10-04T02:05:26.821Z,67.80
2017-10-04T02:07:53.970Z,67.70
2017-10-04T02:10:21.150Z,67.80
2017-10-04T02:12:49.069Z,67.90
2017-10-04T02:15:16.263Z,67.80
2017-10-04T02:17:44.334Z,68.80
2017-10-04T02:20:12.300Z,68.30
2017-10-04T02:22:39.495Z,67.80
2017-10-04T02:25:07.545Z,67.70
2017-10-04T02:27:35.460Z,67.70
2017-10-04T02:30:02.643Z,67.80
2017-10-04T02:32:29.838Z,67.70
2017-10-04T02:34:56.983Z,67.70
2017-10-04T02:37:24.143Z,67.70
2017-10-04T02:39:51.340Z,67.80
2017-10-04T02:42:19.394Z,67.80
2017-10-04T02:44:47.311Z,68.50
2017-10-04T02:47:16.223Z,67.70
2017-10-04T02:49:43.371Z,67.70
2017-10-04T02:52:11.161Z,67.60
2017-10-04T02:54:38.355Z,67.50
2017-10-04T02:57:05.507Z,67.50
2017-10-04T02:59:33.600Z,67.80
2017-10-04T03:02:01.572Z,67.70
2017-10-04T03:04:29.484Z,67.50
2017-10-04T03:06:56.639Z,67.50
2017-10-04T03:09:23.832Z,67.50
2017-10-04T03:11:51.746Z,68.90
2017-10-04T03:14:18.904Z,68.20
2017-10-04T03:16:46.903Z,67.80
2017-10-04T03:19:14.054Z,67.80
2017-10-04T03:21:41.243Z,67.60
2017-10-04T03:24:08.398Z,67.70
2017-10-04T03:26:36.339Z,67.60
2017-10-04T03:29:03.535Z,67.60
2017-10-04T03:31:31.605Z,67.80
2017-10-04T03:33:59.662Z,67.70
2017-10-04T03:36:27.615Z,68.70
2017-10-04T03:38:55.535Z,68.20
2017-10-04T03:41:22.719Z,68.20
2017-10-04T03:43:50.811Z,67.70
2017-10-04T03:46:18.728Z,68.40
2017-10-04T03:48:46.149Z,68.40
2017-10-04T03:51:14.068Z,67.80
2017-10-04T03:53:41.219Z,67.70
2017-10-04T03:56:08.405Z,67.60
2017-10-04T03:58:36.324Z,67.20
2017-10-04T04:01:04.290Z,67.20
2017-10-04T04:03:31.479Z,67.20
2017-10-04T04:05:58.626Z,67.20
2017-10-04T04:08:25.779Z,67.10
2017-10-04T04:10:52.963Z,67.20
2017-10-04T04:13:20.922Z,67.30
2017-10-04T04:15:48.839Z,67.40
2017-10-04T04:18:15.985Z,67.30
2017-10-04T04:20:43.168Z,67.40
2017-10-04T04:23:10.395Z,67.20
2017-10-04T04:25:37.587Z,67.60
2017-10-04T04:28:04.742Z,67.30
2017-10-04T04:30:32.663Z,67.50
2017-10-04T04:32:59.870Z,67.40
2017-10-04T04:35:27.784Z,67.40
2017-10-04T04:38:00.936Z,67.40
2017-10-04T04:40:28.854Z,67.40
2017-10-04T04:42:56.101Z,67.40
2017-10-04T04:45:23.284Z,67.30
2017-10-04T04:47:50.443Z,67.30
2017-10-04T04:50:17.644Z,67.20
2017-10-04T04:52:45.235Z,67.30
2017-10-04T04:55:12.384Z,67.60
2017-10-04T04:57:39.571Z,67.40
2017-10-04T05:00:08.304Z,67.40
2017-10-04T05:02:35.507Z,67.90
2017-10-04T05:05:04.331Z,68.00
2017-10-04T05:07:31.484Z,67.60
2017-10-04T05:09:59.589Z,67.40
2017-10-04T05:12:26.744Z,67.60
2017-10-04T05:14:54.719Z,67.90
2017-10-04T05:17:22.634Z,67.40
2017-10-04T05:19:51.336Z,67.30
2017-10-04T05:22:18.517Z,67.20
2017-10-04T05:24:45.667Z,67.40
2017-10-04T05:27:12.859Z,67.40
2017-10-04T05:29:41.566Z,67.80
2017-10-04T05:32:08.711Z,67.60
2017-10-04T05:34:37.559Z,67.40
2017-10-04T05:37:04.709Z,67.30
2017-10-04T05:39:32.680Z,66.90
2017-10-04T05:41:59.871Z,67.10
2017-10-04T05:44:27.787Z,67.10
2017-10-04T05:46:55.787Z,67.10
2017-10-04T05:49:23.016Z,67.30
2017-10-04T05:51:50.168Z,67.60
2017-10-04T05:54:17.350Z,67.80
2017-10-04T05:56:45.273Z,67.10
2017-10-04T05:59:12.461Z,67.00
2017-10-04T06:01:40.385Z,67.00
2017-10-04T06:04:07.575Z,67.10
2017-10-04T06:06:35.538Z,67.30
2017-10-04T06:09:02.691Z,67.60
2017-10-04T06:11:30.783Z,68.00
2017-10-04T06:13:57.962Z,67.30
2017-10-04T06:16:25.103Z,67.30
2017-10-04T06:18:53.059Z,67.10
2017-10-04T06:21:20.982Z,67.60
2017-10-04T06:23:48.128Z,66.80
2017-10-04T06:26:16.083Z,67.40
2017-10-04T06:28:43.227Z,66.50
2017-10-04T06:31:10.415Z,66.60
2017-10-04T06:33:37.567Z,66.50
2017-10-04T06:36:05.474Z,67.20
2017-10-04T06:38:32.867Z,66.60
2017-10-04T06:41:00.798Z,66.80
2017-10-04T06:43:27.993Z,66.80
2017-10-04T06:45:55.947Z,66.80
2017-10-04T06:48:23.096Z,66.80
2017-10-04T06:50:50.279Z,66.80
2017-10-04T06:53:17.858Z,66.80
2017-10-04T06:55:45.041Z,66.80
2017-10-04T06:58:13.911Z,67.50
2017-10-04T07:00:42.026Z,66.80
2017-10-04T07:03:09.172Z,67.30
2017-10-04T07:05:37.115Z,67.00
2017-10-04T07:08:04.260Z,66.90
2017-10-04T07:10:31.443Z,66.90
2017-10-04T07:13:00.280Z,66.90
2017-10-04T07:15:28.259Z,66.80
2017-10-04T07:17:56.196Z,67.00
2017-10-04T07:20:23.381Z,66.90
2017-10-04T07:22:51.495Z,67.00
2017-10-04T07:25:19.403Z,67.00
2017-10-04T07:27:46.546Z,67.00
2017-10-04T07:30:14.631Z,67.40
2017-10-04T07:32:41.783Z,67.30
2017-10-04T07:35:09.714Z,67.00
2017-10-04T07:37:36.890Z,66.90
2017-10-04T07:40:04.823Z,67.00
2017-10-04T07:42:32.787Z,67.00
2017-10-04T07:45:00.705Z,67.00
2017-10-04T07:47:27.859Z,67.00
2017-10-04T07:49:55.986Z,67.00
2017-10-04T07:52:23.906Z,67.60
2017-10-04T07:54:51.055Z,67.60
2017-10-04T07:57:18.247Z,67.40
2017-10-04T07:59:46.943Z,67.00
2017-10-04T08:02:14.913Z,67.00
2017-10-04T08:04:43.601Z,67.00
2017-10-04T08:07:11.526Z,67.10
2017-10-04T08:09:38.723Z,67.00
2017-10-04T08:12:06.662Z,67.20
2017-10-04T08:14:33.807Z,67.20
2017-10-04T08:17:00.950Z,67.20
2017-10-04T08:19:28.934Z,67.80
2017-10-04T08:21:56.084Z,67.70
2017-10-04T08:24:23.230Z,67.10
2017-10-04T08:26:50.407Z,67.10
2017-10-04T08:29:17.595Z,67.10
2017-10-04T08:31:45.710Z,67.20
2017-10-04T08:34:12.903Z,67.20
2017-10-04T08:36:40.814Z,67.20
2017-10-04T08:39:07.963Z,67.20
2017-10-04T08:41:35.931Z,67.20
2017-10-04T08:44:03.080Z,67.60
2017-10-04T08:46:30.230Z,67.30
2017-10-04T08:48:57.421Z,67.30
2017-10-04T08:51:28.335Z,67.20
2017-10-04T08:53:56.276Z,67.20
2017-10-04T08:56:24.183Z,67.60
2017-10-04T08:58:52.261Z,67.30
2017-10-04T09:01:19.444Z,67.20
2017-10-04T09:03:47.364Z,66.80
2017-10-04T09:06:14.538Z,66.80
2017-10-04T09:08:41.683Z,66.70
2017-10-04T09:11:09.664Z,66.70
2017-10-04T09:13:37.742Z,66.70
2017-10-04T09:16:04.904Z,66.70
2017-10-04T09:18:33.627Z,66.40
2017-10-04T09:21:00.771Z,66.70
2017-10-04T09:23:28.884Z,66.80
2017-10-04T09:25:56.028Z,66.90
2017-10-04T09:28:23.174Z,67.20
2017-10-04T09:30:51.276Z,67.30
2017-10-04T09:33:18.427Z,67.20
2017-10-04T09:35:46.368Z,67.20
2017-10-04T09:38:14.442Z,67.20
2017-10-04T09:40:41.594Z,67.20
2017-10-04T09:43:08.807Z,67.20
2017-10-04T09:45:37.488Z,67.20
2017-10-04T09:48:05.407Z,67.30
2017-10-04T09:50:32.602Z,67.30
2017-10-04T09:53:01.288Z,67.40
2017-10-04T09:55:29.199Z,67.60
2017-10-04T09:57:56.390Z,67.60
2017-10-04T10:00:23.531Z,67.60
2017-10-04T10:02:51.486Z,67.50
2017-10-04T10:05:18.704Z,67.50
2017-10-04T10:07:46.764Z,67.50
2017-10-04T10:10:14.683Z,67.50
2017-10-04T10:12:42.199Z,67.50
2017-10-04T10:15:10.023Z,67.50
2017-10-04T10:17:37.176Z,67.60
2017-10-04T10:20:04.355Z,67.50
2017-10-04T10:22:32.271Z,67.70
2017-10-04T10:24:59.463Z,67.70
2017-10-04T10:27:27.412Z,68.30
2017-10-04T10:29:54.555Z,67.80
2017-10-04T10:32:21.739Z,67.70
2017-10-04T10:34:49.700Z,67.60
2017-10-04T10:37:16.847Z,67.60
2017-10-04T10:39:43.991Z,67.60
2017-10-04T10:42:11.176Z,67.60
2017-10-04T10:44:39.138Z,67.60
2017-10-04T10:47:07.054Z,67.80
2017-10-04T10:49:34.211Z,67.80
2017-10-04T10:52:02.281Z,67.90
2017-10-04T10:54:30.363Z,67.90
2017-10-04T10:56:57.508Z,67.80
2017-10-04T10:59:25.428Z,67.70
2017-10-04T11:01:53.407Z,67.70
2017-10-04T11:04:22.245Z,67.70
2017-10-04T11:06:49.396Z,67.80
2017-10-04T11:09:17.384Z,67.60
2017-10-04T11:11:45.318Z,67.70
2017-10-04T11:14:13.403Z,67.90
2017-10-04T11:16:41.479Z,67.60
2017-10-04T11:19:08.851Z,68.00
2017-10-04T11:21:36.031Z,67.70
2017-10-04T11:24:03.939Z,67.70
2017-10-04T11:26:31.902Z,67.70
2017-10-04T11:28:59.092Z,67.70
2017-10-04T11:31:26.240Z,67.70
2017-10-04T11:33:53.391Z,67.80
2017-10-04T11:36:20.567Z,67.70
2017-10-04T11:38:48.590Z,67.90
2017-10-04T11:41:16.558Z,67.90
2017-10-04T11:43:43.710Z,68.30
2017-10-04T11:46:11.808Z,67.80
2017-10-04T11:48:38.955Z,67.80
2017-10-04T11:51:06.098Z,67.90
2017-10-04T11:53:34.083Z,67.70
2017-10-04T11:56:01.238Z,67.80
2017-10-04T11:58:28.383Z,67.80
2017-10-04T12:00:55.563Z,67.60
2017-10-04T12:03:23.548Z,67.70
2017-10-04T12:05:51.466Z,68.20
2017-10-04T12:08:18.621Z,68.20
2017-10-04T12:10:45.796Z,68.00
2017-10-04T12:13:13.851Z,67.70
2017-10-04T12:15:41.027Z,67.70
2017-10-04T12:18:08.977Z,67.90
2017-10-04T12:20:36.187Z,68.00
2017-10-04T12:23:04.152Z,67.70
2017-10-04T12:25:31.307Z,67.40
2017-10-04T12:27:58.527Z,67.20
2017-10-04T12:30:27.358Z,66.70
2017-10-04T12:32:54.508Z,66.70
2017-10-04T12:35:21.711Z,66.50
2017-10-04T12:37:49.830Z,66.50
2017-10-04T12:40:19.923Z,67.10
2017-10-04T12:42:48.614Z,66.60
2017-10-04T12:45:15.759Z,66.60
2017-10-04T12:47:43.707Z,66.80
2017-10-04T12:50:10.855Z,66.80
2017-10-04T12:52:38.032Z,66.90
2017-10-04T12:55:05.987Z,67.20
2017-10-04T12:57:33.903Z,67.70
2017-10-04T13:00:01.048Z,67.20
2017-10-04T13:02:28.229Z,67.20
2017-10-04T13:04:56.144Z,67.20
2017-10-04T13:07:25.019Z,67.20
2017-10-04T13:09:53.919Z,67.30
2017-10-04T13:12:22.135Z,67.40
2017-10-04T13:14:50.059Z,67.40
2017-10-04T13:17:18.916Z,67.60
2017-10-04T13:19:46.107Z,67.50
2017-10-04T13:22:14.019Z,67.40
2017-10-04T13:24:41.168Z,67.40
2017-10-04T13:27:08.385Z,67.40
2017-10-04T13:29:36.299Z,67.40
2017-10-04T13:32:03.460Z,67.20
2017-10-04T13:34:30.650Z,67.30
2017-10-04T13:36:58.563Z,67.50
2017-10-04T13:39:25.717Z,67.40
2017-10-04T13:41:52.906Z,67.50
2017-10-04T13:44:20.101Z,67.40
2017-10-04T13:46:47.258Z,67.50
2017-10-04T13:49:14.411Z,68.00
2017-10-04T13:51:41.604Z,67.60
2017-10-04T13:54:08.755Z,67.40
2017-10-04T13:56:35.903Z,67.40
2017-10-04T13:59:03.084Z,67.40
2017-10-04T14:01:31.926Z,67.40
2017-10-04T14:04:00.013Z,67.40
2017-10-04T14:06:27.718Z,67.50
2017-10-04T14:08:56.515Z,67.50
2017-10-04T14:11:23.680Z,67.50
2017-10-04T14:13:50.847Z,68.10
2017-10-04T14:16:18.040Z,67.60
2017-10-04T14:18:45.183Z,67.40
2017-10-04T14:21:13.101Z,67.30
2017-10-04T14:23:40.278Z,67.30
2017-10-04T14:26:08.187Z,67.40
2017-10-04T14:28:37.034Z,67.50
2017-10-04T14:31:05.166Z,67.50
2017-10-04T14:33:32.687Z,67.30
2017-10-04T14:35:59.901Z,67.50
2017-10-04T14:38:27.091Z,68.00
2017-10-04T14:40:54.243Z,67.40
2017-10-04T14:43:22.315Z,67.20
2017-10-04T14:45:50.407Z,67.30
2017-10-04T14:48:17.556Z,67.30
2017-10-04T14:50:46.449Z,67.10
2017-10-04T14:53:14.453Z,67.40
2017-10-04T14:55:41.614Z,67.40
2017-10-04T14:58:09.808Z,67.10
2017-10-04T15:00:36.975Z,67.40
2017-10-04T15:03:05.062Z,68.70
2017-10-04T15:05:32.239Z,67.60
2017-10-04T15:08:00.251Z,66.40
2017-10-04T15:10:28.436Z,66.50
2017-10-04T15:12:57.153Z,67.20
2017-10-04T15:15:24.885Z,67.20
2017-10-04T15:17:52.241Z,66.40
2017-10-04T15:20:19.880Z,66.20
2017-10-04T15:22:47.024Z,67.20
2017-10-04T15:25:14.208Z,66.20
2017-10-04T15:27:41.358Z,67.40
2017-10-04T15:30:09.351Z,65.80
2017-10-04T15:32:36.548Z,68.00
2017-10-04T15:35:03.701Z,67.50
2017-10-04T15:37:30.851Z,65.40
2017-10-04T15:39:58.827Z,66.40
2017-10-04T15:42:26.004Z,66.20
2017-10-04T15:44:53.154Z,65.20
2017-10-04T15:47:20.335Z,66.90
2017-10-04T15:49:48.382Z,65.30
2017-10-04T15:52:17.272Z,66.10
2017-10-04T15:54:44.439Z,66.80
2017-10-04T15:57:11.595Z,64.90
2017-10-04T15:59:38.774Z,65.70
2017-10-04T16:02:06.692Z,65.10
2017-10-04T16:04:33.869Z,65.10
2017-10-04T16:07:01.089Z,64.30
2017-10-04T16:09:29.142Z,65.70
2017-10-04T16:11:57.064Z,65.60
2017-10-04T16:14:24.239Z,65.40
2017-10-04T16:16:53.079Z,65.90
2017-10-04T16:19:21.093Z,65.90
2017-10-04T16:21:49.811Z,66.30
2017-10-04T16:24:17.905Z,65.80
2017-10-04T16:26:45.087Z,66.00
2017-10-04T16:29:12.279Z,64.20
2017-10-04T16:31:40.192Z,65.00
2017-10-04T16:34:08.827Z,65.00
2017-10-04T16:36:36.776Z,65.30
2017-10-04T16:39:03.927Z,65.30
2017-10-04T16:41:31.108Z,66.50
2017-10-04T16:43:59.046Z,66.00
2017-10-04T16:46:26.227Z,65.20
2017-10-04T16:48:53.394Z,65.70
2017-10-04T16:51:20.543Z,64.50
2017-10-04T16:53:47.718Z,64.70
2017-10-04T16:56:14.872Z,64.50
2017-10-04T16:58:42.019Z,64.70
2017-10-04T17:01:09.212Z,64.70
2017-10-04T17:03:37.129Z,65.40
2017-10-04T17:06:04.317Z,64.70
2017-10-04T17:08:31.463Z,64.90
2017-10-04T17:10:58.691Z,64.90
2017-10-04T17:13:25.895Z,64.90
2017-10-04T17:15:53.811Z,65.30
2017-10-04T17:18:20.961Z,65.20
2017-10-04T17:20:48.139Z,66.10
2017-10-04T17:23:15.279Z,65.80
2017-10-04T17:25:43.230Z,65.20
2017-10-04T17:28:10.370Z,65.30
2017-10-04T17:30:37.563Z,65.40
2017-10-04T17:33:04.712Z,65.40
2017-10-04T17:35:32.663Z,65.40
2017-10-04T17:38:00.754Z,65.50
2017-10-04T17:40:28.918Z,67.10
2017-10-04T17:42:56.071Z,64.90
2017-10-04T17:45:23.250Z,63.60
2017-10-04T17:47:51.207Z,65.20
2017-10-04T17:50:20.064Z,65.60
2017-10-04T17:52:48.126Z,65.40
2017-10-04T17:55:15.345Z,64.90
2017-10-04T17:57:43.263Z,65.50
2017-10-04T18:00:10.447Z,65.50
2017-10-04T18:02:37.596Z,65.20
2017-10-04T18:05:04.775Z,65.00
2017-10-04T18:07:32.754Z,64.90
2017-10-04T18:10:00.671Z,64.90
2017-10-04T18:12:27.819Z,64.80
2017-10-04T18:14:55.013Z,65.00
2017-10-04T18:17:22.199Z,65.50
2017-10-04T18:19:49.380Z,65.60
2017-10-04T18:22:17.311Z,65.00
2017-10-04T18:24:44.495Z,65.00
2017-10-04T18:27:12.430Z,64.90
2017-10-04T18:29:39.613Z,65.10
2017-10-04T18:32:06.809Z,65.30
2017-10-04T18:34:34.727Z,65.40
2017-10-04T18:37:01.877Z,65.20
2017-10-04T18:39:29.059Z,65.30
2017-10-04T18:41:56.998Z,65.40
2017-10-04T18:44:24.956Z,65.40
2017-10-04T18:46:52.109Z,65.70
2017-10-04T18:49:20.085Z,66.30
2017-10-04T18:51:48.060Z,65.70
2017-10-04T18:54:15.215Z,65.70
2017-10-04T18:56:42.393Z,65.40
2017-10-04T18:59:09.544Z,65.50
2017-10-04T19:01:36.747Z,65.50
2017-10-04T19:04:03.916Z,65.60
2017-10-04T19:06:31.075Z,65.60
2017-10-04T19:08:58.263Z,65.70
2017-10-04T19:11:25.418Z,65.40
2017-10-04T19:13:53.388Z,66.20
2017-10-04T19:16:20.546Z,66.20
2017-10-04T19:18:48.462Z,66.20
2017-10-04T19:21:15.647Z,66.20
2017-10-04T19:23:42.799Z,66.80
2017-10-04T19:26:10.058Z,66.00
2017-10-04T19:28:37.296Z,65.80
2017-10-04T19:31:04.503Z,65.80
2017-10-04T19:33:37.884Z,65.70
2017-10-04T19:36:06.760Z,66.60
2017-10-04T19:38:35.264Z,66.60
2017-10-04T19:41:06.276Z,66.00
2017-10-04T19:43:35.519Z,66.00
2017-10-04T19:46:04.308Z,65.20
2017-10-04T19:48:32.449Z,65.00
2017-10-04T19:51:00.516Z,64.90
2017-10-04T19:53:27.709Z,65.50
2017-10-04T19:55:57.198Z,64.70
2017-10-04T19:58:25.143Z,65.00
2017-10-04T20:00:54.955Z,64.80
2017-10-04T20:03:22.126Z,64.90
2017-10-04T20:05:49.539Z,65.10
2017-10-04T20:08:16.724Z,65.00
2017-10-04T20:10:45.030Z,64.90
2017-10-04T20:13:12.733Z,64.90
2017-10-04T20:15:39.881Z,65.00
2017-10-04T20:18:07.043Z,64.90
2017-10-04T20:20:34.258Z,65.10
2017-10-04T20:23:03.494Z,65.20
2017-10-04T20:25:31.505Z,65.10
2017-10-04T20:27:58.657Z,65.60
2017-10-04T20:30:28.304Z,66.00
2017-10-04T20:32:55.868Z,65.60
2017-10-04T20:35:23.022Z,65.60
2017-10-04T20:37:50.208Z,65.70
2017-10-04T20:40:19.119Z,65.70
2017-10-04T20:42:46.274Z,65.60
2017-10-04T20:45:14.242Z,66.00
2017-10-04T20:47:42.155Z,66.00
2017-10-04T20:50:10.547Z,66.70
2017-10-04T20:52:39.190Z,66.00
2017-10-04T20:55:06.758Z,66.20
2017-10-04T20:57:34.726Z,66.80
2017-10-04T21:00:04.479Z,66.00
2017-10-04T21:02:31.626Z,66.00
2017-10-04T21:05:02.617Z,66.00
2017-10-04T21:07:30.815Z,66.10
2017-10-04T21:09:58.828Z,66.10
2017-10-04T21:12:25.978Z,66.20
2017-10-04T21:14:53.167Z,66.20
2017-10-04T21:17:21.081Z,66.20
2017-10-04T21:19:51.095Z,66.10
2017-10-04T21:22:21.250Z,67.20
2017-10-04T21:24:49.824Z,66.80
2017-10-04T21:27:17.007Z,66.40
2017-10-04T21:29:44.156Z,66.20
2017-10-04T21:32:11.344Z,65.90
2017-10-04T21:34:38.495Z,66.30
2017-10-04T21:37:05.675Z,66.30
2017-10-04T21:39:32.827Z,66.10
2017-10-04T21:42:03.737Z,66.70
2017-10-04T21:44:31.119Z,67.00
2017-10-04T21:46:58.535Z,66.50
2017-10-04T21:49:26.483Z,66.20
2017-10-04T21:51:53.624Z,66.20
2017-10-04T21:54:20.803Z,66.10
2017-10-04T21:56:48.714Z,66.20
2017-10-04T21:59:16.676Z,66.20
2017-10-04T22:01:43.828Z,66.20
2017-10-04T22:04:11.744Z,67.30
2017-10-04T22:06:39.820Z,66.60
2017-10-04T22:09:07.004Z,66.70
2017-10-04T22:11:34.142Z,66.40
2017-10-04T22:14:02.087Z,66.20
2017-10-04T22:16:29.275Z,66.20
2017-10-04T22:18:56.419Z,66.30
2017-10-04T22:21:23.567Z,66.20
2017-10-04T22:23:51.522Z,66.20
2017-10-04T22:26:19.491Z,67.00
2017-10-04T22:28:47.407Z,66.60
2017-10-04T22:31:14.553Z,66.50
2017-10-04T22:33:41.750Z,66.30
2017-10-04T22:36:09.797Z,66.20
2017-10-04T22:38:36.956Z,66.30
2017-10-04T22:41:04.935Z,66.30
2017-10-04T22:43:32.875Z,66.30
2017-10-04T22:46:00.058Z,66.30
2017-10-04T22:48:27.216Z,66.50
2017-10-04T22:50:55.184Z,67.10
2017-10-04T22:53:23.149Z,67.40
2017-10-04T22:55:50.332Z,66.70
2017-10-04T22:58:19.078Z,66.50
2017-10-04T23:00:46.255Z,66.40
2017-10-04T23:03:13.415Z,66.60
2017-10-04T23:05:42.262Z,66.50
2017-10-04T23:08:10.378Z,66.40
2017-10-04T23:10:38.300Z,66.90
2017-10-04T23:13:05.996Z,66.80
2017-10-04T23:15:33.183Z,68.00
2017-10-04T23:18:00.480Z,66.90
2017-10-04T23:20:27.660Z,66.50
2017-10-04T23:22:55.663Z,66.90
2017-10-04T23:25:22.839Z,66.50
2017-10-04T23:27:49.984Z,66.50
2017-10-04T23:30:17.164Z,66.70
2017-10-04T23:32:45.120Z,66.50
2017-10-04T23:35:12.303Z,66.40
2017-10-04T23:37:39.499Z,66.70
2017-10-04T23:40:07.553Z,67.50
2017-10-04T23:42:35.464Z,66.30
2017-10-04T23:45:03.474Z,66.30
2017-10-04T23:47:31.408Z,66.60
2017-10-04T23:49:59.510Z,66.50
2017-10-04T23:52:26.655Z,66.40
2017-10-04T23:54:54.729Z,66.60
2017-10-04T23:57:21.924Z,66.60
2017-10-04T23:59:50.020Z,66.70
